createdAt,value
2022-08-17T00:00:17.304Z,17.20
2022-08-17T00:03:11.763Z,17.20
2022-08-17T00:05:51.171Z,17.30
2022-08-17T00:08:24.894Z,17.30
2022-08-17T00:10:53.535Z,17.30
2022-08-17T00:13:33.882Z,17.40
2022-08-17T00:16:06.726Z,17.40
2022-08-17T00:19:01.245Z,17.20
2022-08-17T00:21:25.136Z,17.20
2022-08-17T00:23:53.078Z,17.10
2022-08-17T00:26:44.242Z,17.00
2022-08-17T00:29:08.929Z,17.00
2022-08-17T00:31:36.863Z,17.00
2022-08-17T00:34:06.081Z,17.00
2022-08-17T00:36:32.850Z,17.10
2022-08-17T00:38:59.615Z,17.10
2022-08-17T00:41:28.447Z,17.10
2022-08-17T00:44:02.311Z,17.20
2022-08-17T00:46:38.071Z,17.20
2022-08-17T00:49:05.827Z,17.20
2022-08-17T00:51:54.715Z,17.20
2022-08-17T00:54:29.453Z,17.20
2022-08-17T00:57:02.941Z,17.10
2022-08-17T00:59:44.968Z,17.20
2022-08-17T01:02:16.872Z,17.10
2022-08-17T01:04:46.480Z,17.20
2022-08-17T01:07:15.167Z,17.20
2022-08-17T01:09:42.988Z,17.30
2022-08-17T01:12:11.986Z,17.20
2022-08-17T01:14:40.289Z,17.20
2022-08-17T01:17:08.064Z,17.00
2022-08-17T01:19:39.635Z,16.90
2022-08-17T01:22:11.332Z,16.80
2022-08-17T01:24:50.723Z,16.80
2022-08-17T01:27:18.468Z,16.80
2022-08-17T01:29:52.534Z,16.70
2022-08-17T01:32:19.939Z,16.80
2022-08-17T01:34:50.573Z,16.80
2022-08-17T01:37:19.636Z,16.80
2022-08-17T01:40:06.501Z,16.80
2022-08-17T01:42:37.966Z,16.80
2022-08-17T01:45:14.771Z,16.80
2022-08-17T01:47:41.798Z,16.80
2022-08-17T01:50:15.854Z,16.70
2022-08-17T01:52:49.277Z,16.80
2022-08-17T01:55:24.581Z,16.80
2022-08-17T01:57:53.898Z,16.80
2022-08-17T02:00:21.657Z,16.80
2022-08-17T02:02:48.777Z,16.90
2022-08-17T02:05:15.790Z,16.90
2022-08-17T02:07:59.581Z,16.80
2022-08-17T02:10:33.763Z,16.80
2022-08-17T02:13:04.137Z,16.80
2022-08-17T02:15:32.145Z,16.80
2022-08-17T02:17:58.938Z,16.70
2022-08-17T02:20:41.631Z,16.70
2022-08-17T02:23:11.725Z,16.60
2022-08-17T02:25:40.331Z,16.60
2022-08-17T02:28:06.984Z,16.60
2022-08-17T02:30:59.656Z,16.60
2022-08-17T02:33:20.924Z,16.60
2022-08-17T02:35:48.441Z,16.60
2022-08-17T02:38:15.158Z,16.60
2022-08-17T02:40:41.890Z,16.50
2022-08-17T02:43:09.175Z,16.50
2022-08-17T02:45:36.268Z,16.50
2022-08-17T02:48:03.940Z,16.60
2022-08-17T02:50:30.921Z,16.60
2022-08-17T02:53:02.280Z,16.60
2022-08-17T02:55:37.253Z,16.50
2022-08-17T02:58:05.024Z,16.50
2022-08-17T03:00:41.015Z,16.50
2022-08-17T03:03:08.952Z,16.50
2022-08-17T03:05:38.394Z,16.50
2022-08-17T03:08:06.932Z,16.50
2022-08-17T03:10:39.719Z,16.40
2022-08-17T03:13:06.588Z,16.40
2022-08-17T03:15:34.440Z,16.30
2022-08-17T03:18:02.614Z,16.40
2022-08-17T03:20:36.088Z,16.30
2022-08-17T03:23:03.761Z,16.20
2022-08-17T03:25:42.753Z,16.30
2022-08-17T03:28:12.028Z,16.20
2022-08-17T03:30:39.841Z,16.30
2022-08-17T03:33:12.193Z,16.30
2022-08-17T03:35:40.411Z,16.20
2022-08-17T03:38:12.223Z,16.30
2022-08-17T03:40:56.514Z,16.30
2022-08-17T03:43:31.527Z,16.20
2022-08-17T03:46:34.138Z,16.20
2022-08-17T03:49:25.716Z,16.20
2022-08-17T03:52:12.807Z,16.20
2022-08-17T03:54:58.677Z,16.30
2022-08-17T03:57:26.730Z,16.20
2022-08-17T03:59:55.162Z,16.20
2022-08-17T04:02:32.306Z,16.20
2022-08-17T04:04:59.384Z,16.10
2022-08-17T04:07:30.446Z,16.20
2022-08-17T04:09:57.998Z,16.10
2022-08-17T04:12:30.426Z,16.10
2022-08-17T04:14:57.312Z,16.10
2022-08-17T04:17:27.216Z,16.10
2022-08-17T04:19:55.301Z,16.20
2022-08-17T04:22:33.155Z,16.20
2022-08-17T04:25:33.628Z,16.30
2022-08-17T04:28:01.404Z,16.30
2022-08-17T04:30:31.996Z,16.30
2022-08-17T04:33:13.909Z,16.40
2022-08-17T04:35:51.509Z,16.30
2022-08-17T04:38:22.608Z,16.30
2022-08-17T04:41:08.384Z,16.30
2022-08-17T04:43:37.395Z,16.30
2022-08-17T04:46:09.409Z,16.40
2022-08-17T04:48:40.443Z,16.50
2022-08-17T04:51:27.902Z,16.60
2022-08-17T04:53:58.951Z,16.70
2022-08-17T04:56:27.549Z,16.80
2022-08-17T04:58:58.486Z,16.90
2022-08-17T05:01:28.401Z,17.00
2022-08-17T05:04:18.390Z,17.10
2022-08-17T05:06:49.513Z,17.10
2022-08-17T05:09:17.762Z,17.20
2022-08-17T05:11:45.890Z,17.20
2022-08-17T05:14:13.707Z,17.30
2022-08-17T05:16:40.490Z,17.40
2022-08-17T05:19:07.259Z,17.50
2022-08-17T05:21:33.980Z,17.50
2022-08-17T05:24:00.713Z,17.50
2022-08-17T05:26:29.466Z,17.60
2022-08-17T05:29:00.470Z,17.80
2022-08-17T05:31:30.681Z,17.90
2022-08-17T05:33:58.361Z,18.00
2022-08-17T05:36:42.014Z,18.10
2022-08-17T05:39:16.232Z,18.20
2022-08-17T05:41:43.446Z,18.30
2022-08-17T05:44:10.739Z,18.40
2022-08-17T05:46:41.837Z,18.50
2022-08-17T05:49:17.819Z,18.70
2022-08-17T05:52:09.106Z,18.80
2022-08-17T05:54:51.150Z,19.00
2022-08-17T05:57:36.896Z,19.30
2022-08-17T06:00:50.617Z,19.60
2022-08-17T06:03:59.954Z,20.00
2022-08-17T06:06:52.338Z,20.60
2022-08-17T06:09:33.688Z,21.70
2022-08-17T06:12:21.380Z,23.20
2022-08-17T06:15:24.499Z,24.90
2022-08-17T06:17:57.396Z,26.60
2022-08-17T06:20:30.345Z,27.90
2022-08-17T06:23:04.961Z,29.00
2022-08-17T06:25:47.011Z,29.20
2022-08-17T06:28:24.167Z,28.80
2022-08-17T06:31:00.637Z,28.30
2022-08-17T06:33:36.020Z,28.30
2022-08-17T06:37:05.759Z,28.90
2022-08-17T06:40:07.250Z,28.70
2022-08-17T06:43:06.680Z,27.50
2022-08-17T06:45:56.286Z,26.30
2022-08-17T06:48:42.698Z,25.30
2022-08-17T06:51:25.808Z,24.40
2022-08-17T06:54:22.336Z,23.90
2022-08-17T06:57:00.627Z,23.70
2022-08-17T06:59:54.529Z,23.60
2022-08-17T07:02:52.015Z,23.60
2022-08-17T07:05:24.887Z,23.70
2022-08-17T07:08:11.521Z,23.80
2022-08-17T07:11:09.754Z,23.90
2022-08-17T07:14:17.162Z,24.10
2022-08-17T07:16:51.741Z,24.10
2022-08-17T07:19:23.239Z,24.00
2022-08-17T07:22:04.777Z,24.10
2022-08-17T07:24:43.109Z,24.00
2022-08-17T07:27:28.022Z,24.10
2022-08-17T07:30:10.614Z,24.00
2022-08-17T07:33:13.221Z,23.90
2022-08-17T07:35:44.973Z,23.70
2022-08-17T07:38:28.016Z,23.60
2022-08-17T07:40:57.899Z,23.40
2022-08-17T07:43:34.554Z,23.40
2022-08-17T07:46:44.747Z,23.30
2022-08-17T07:49:12.485Z,23.40
2022-08-17T07:51:50.371Z,23.40
2022-08-17T07:54:22.404Z,23.40
2022-08-17T07:56:53.594Z,23.30
2022-08-17T07:59:37.683Z,23.50
2022-08-17T08:02:34.227Z,23.60
2022-08-17T08:05:50.335Z,23.80
2022-08-17T08:08:42.629Z,23.80
2022-08-17T08:11:15.268Z,23.80
2022-08-17T08:13:45.244Z,24.00
2022-08-17T08:16:19.804Z,24.00
2022-08-17T08:18:55.361Z,24.10
2022-08-17T08:21:46.318Z,24.30
2022-08-17T08:24:23.971Z,24.10
2022-08-17T08:27:08.122Z,24.30
2022-08-17T08:30:00.583Z,24.40
2022-08-17T08:33:12.829Z,24.40
2022-08-17T08:35:57.152Z,24.30
2022-08-17T08:38:53.848Z,24.10
2022-08-17T08:42:07.579Z,24.00
2022-08-17T08:45:00.784Z,23.80
2022-08-17T08:47:53.817Z,23.70
2022-08-17T08:50:38.782Z,23.60
2022-08-17T08:53:34.838Z,23.50
2022-08-17T08:56:58.999Z,23.40
2022-08-17T08:59:44.320Z,23.20
2022-08-17T09:02:50.974Z,22.90
2022-08-17T09:05:55.910Z,23.00
2022-08-17T09:08:40.824Z,22.90
2022-08-17T09:12:02.931Z,22.80
2022-08-17T09:14:45.008Z,22.80
2022-08-17T09:17:20.398Z,22.80
2022-08-17T09:20:11.212Z,22.80
2022-08-17T09:22:51.140Z,22.80
2022-08-17T09:25:26.849Z,22.90
2022-08-17T09:28:00.738Z,22.90
2022-08-17T09:30:37.199Z,23.00
2022-08-17T09:33:09.090Z,23.00
2022-08-17T09:35:45.344Z,23.20
2022-08-17T09:38:34.716Z,23.40
2022-08-17T09:41:31.613Z,23.50
2022-08-17T09:44:45.109Z,23.40
2022-08-17T09:47:41.971Z,23.20
2022-08-17T09:51:03.940Z,23.00
2022-08-17T09:53:25.269Z,23.00
2022-08-17T09:56:40.003Z,22.80
2022-08-17T09:59:48.456Z,22.80
2022-08-17T10:02:26.686Z,22.50
2022-08-17T10:05:05.360Z,22.50
2022-08-17T10:08:09.116Z,22.60
2022-08-17T10:10:58.684Z,22.80
2022-08-17T10:13:41.929Z,22.80
2022-08-17T10:16:43.249Z,23.10
2022-08-17T10:19:38.013Z,23.30
2022-08-17T10:23:07.903Z,23.20
2022-08-17T10:26:12.815Z,23.30
2022-08-17T10:29:12.565Z,23.40
2022-08-17T10:31:46.141Z,23.30
2022-08-17T10:34:53.633Z,23.40
2022-08-17T10:37:37.061Z,23.80
2022-08-17T10:40:21.225Z,23.90
2022-08-17T10:43:29.265Z,24.10
2022-08-17T10:46:31.205Z,24.40
2022-08-17T10:49:18.655Z,24.90
2022-08-17T10:51:48.534Z,24.70
2022-08-17T10:54:24.257Z,24.90
2022-08-17T10:56:54.085Z,24.90
2022-08-17T10:59:36.083Z,24.80
2022-08-17T11:02:23.005Z,24.90
2022-08-17T11:05:23.853Z,25.20
2022-08-17T11:08:27.956Z,25.40
2022-08-17T11:11:19.725Z,25.60
2022-08-17T11:14:25.982Z,25.80
2022-08-17T11:17:31.642Z,25.90
2022-08-17T11:20:30.140Z,26.00
2022-08-17T11:23:20.905Z,25.90
2022-08-17T11:25:58.135Z,26.10
2022-08-17T11:28:45.961Z,26.20
2022-08-17T11:31:59.783Z,26.40
2022-08-17T11:34:29.055Z,26.50
2022-08-17T11:37:17.959Z,26.40
2022-08-17T11:40:18.018Z,26.20
2022-08-17T11:43:32.024Z,26.10
2022-08-17T11:46:17.822Z,25.80
2022-08-17T11:49:26.178Z,25.60
2022-08-17T11:52:01.123Z,25.40
2022-08-17T11:54:33.340Z,25.30
2022-08-17T11:57:29.164Z,25.30
2022-08-17T12:00:10.430Z,25.50
2022-08-17T12:02:48.103Z,25.90
2022-08-17T12:05:16.769Z,26.30
2022-08-17T12:08:21.768Z,26.40
2022-08-17T12:11:00.641Z,26.30
2022-08-17T12:13:38.456Z,26.30
2022-08-17T12:16:08.158Z,26.30
2022-08-17T12:18:38.255Z,26.40
2022-08-17T12:21:27.948Z,26.60
2022-08-17T12:24:06.364Z,26.50
2022-08-17T12:26:35.695Z,26.50
2022-08-17T12:29:18.362Z,26.40
2022-08-17T12:32:02.134Z,26.30
2022-08-17T12:34:41.213Z,26.40
2022-08-17T12:37:20.519Z,26.40
2022-08-17T12:40:01.603Z,26.40
2022-08-17T12:42:37.208Z,26.60
2022-08-17T12:45:29.274Z,26.70
2022-08-17T12:48:10.163Z,26.80
2022-08-17T12:50:44.360Z,27.00
2022-08-17T12:53:27.149Z,27.00
2022-08-17T12:55:55.440Z,26.90
2022-08-17T12:58:29.076Z,27.00
2022-08-17T13:01:09.086Z,27.00
2022-08-17T13:03:44.350Z,27.20
2022-08-17T13:06:14.791Z,27.40
2022-08-17T13:08:46.081Z,27.60
2022-08-17T13:11:18.486Z,27.90
2022-08-17T13:13:55.842Z,28.00
2022-08-17T13:16:26.583Z,28.30
2022-08-17T13:19:06.593Z,28.20
2022-08-17T13:21:35.096Z,28.10
2022-08-17T13:24:04.859Z,28.00
2022-08-17T13:26:43.138Z,27.90
2022-08-17T13:30:00.152Z,27.90
2022-08-17T13:32:44.123Z,27.80
2022-08-17T13:35:39.765Z,27.90
2022-08-17T13:38:15.063Z,27.90
2022-08-17T13:40:45.513Z,28.10
2022-08-17T13:43:37.251Z,28.10
2022-08-17T13:46:11.782Z,28.00
2022-08-17T13:48:38.871Z,27.80
2022-08-17T13:51:45.366Z,27.80
2022-08-17T13:54:26.079Z,27.70
2022-08-17T13:57:07.010Z,27.70
2022-08-17T13:59:53.275Z,27.80
2022-08-17T14:02:22.789Z,27.60
2022-08-17T14:04:53.883Z,27.70
2022-08-17T14:07:36.698Z,27.60
2022-08-17T14:10:11.801Z,27.60
2022-08-17T14:12:43.685Z,27.70
2022-08-17T14:15:13.533Z,27.80
2022-08-17T14:17:40.210Z,27.80
2022-08-17T14:20:11.649Z,28.10
2022-08-17T14:22:44.278Z,28.10
2022-08-17T14:25:14.185Z,28.40
2022-08-17T14:27:52.442Z,28.50
2022-08-17T14:30:26.983Z,28.40
2022-08-17T14:32:57.826Z,28.60
2022-08-17T14:35:25.294Z,28.80
2022-08-17T14:37:52.640Z,28.90
2022-08-17T14:40:24.303Z,28.80
2022-08-17T14:42:53.190Z,28.70
2022-08-17T14:45:30.336Z,28.70
2022-08-17T14:48:04.012Z,28.60
2022-08-17T14:50:31.798Z,28.60
2022-08-17T14:53:01.344Z,28.60
2022-08-17T14:55:29.610Z,28.60
2022-08-17T14:57:56.414Z,28.60
2022-08-17T15:00:23.146Z,28.60
2022-08-17T15:02:58.031Z,28.60
2022-08-17T15:05:33.402Z,28.70
2022-08-17T15:08:01.567Z,28.70
2022-08-17T15:10:29.995Z,28.70
2022-08-17T15:12:57.350Z,28.60
2022-08-17T15:15:24.703Z,28.60
2022-08-17T15:17:51.737Z,28.50
2022-08-17T15:20:23.934Z,28.50
2022-08-17T15:22:51.071Z,28.50
2022-08-17T15:25:22.422Z,28.50
2022-08-17T15:27:49.325Z,28.40
2022-08-17T15:30:16.567Z,28.30
2022-08-17T15:32:51.307Z,28.30
2022-08-17T15:35:26.917Z,28.30
2022-08-17T15:37:54.490Z,28.30
2022-08-17T15:40:21.283Z,28.40
2022-08-17T15:42:47.938Z,28.40
2022-08-17T15:45:16.709Z,28.40
2022-08-17T15:47:43.441Z,28.50
2022-08-17T15:50:10.583Z,28.50
2022-08-17T15:52:40.158Z,28.50
2022-08-17T15:55:13.516Z,28.50
2022-08-17T15:57:40.652Z,28.50
2022-08-17T16:00:09.636Z,28.40
2022-08-17T16:03:46.978Z,28.30
2022-08-17T16:05:27.975Z,28.20
2022-08-17T16:07:55.804Z,28.10
2022-08-17T16:10:23.148Z,28.00
2022-08-17T16:13:01.817Z,28.00
2022-08-17T16:15:30.870Z,27.90
2022-08-17T16:17:57.629Z,27.90
2022-08-17T16:20:24.302Z,28.00
2022-08-17T16:22:51.308Z,27.90
2022-08-17T16:25:52.168Z,27.90
2022-08-17T16:28:16.524Z,27.90
2022-08-17T16:30:43.488Z,27.90
2022-08-17T16:33:13.458Z,27.90
2022-08-17T16:35:41.775Z,27.90
2022-08-17T16:38:09.454Z,27.90
2022-08-17T16:40:37.955Z,27.80
2022-08-17T16:43:10.282Z,27.80
2022-08-17T16:45:40.363Z,27.90
2022-08-17T16:48:08.505Z,27.90
2022-08-17T16:50:36.260Z,28.00
2022-08-17T16:53:17.007Z,28.00
2022-08-17T16:55:45.499Z,27.90
2022-08-17T16:58:12.396Z,27.90
2022-08-17T17:00:39.377Z,27.90
2022-08-17T17:03:20.530Z,28.00
2022-08-17T17:06:13.333Z,28.00
2022-08-17T17:08:48.355Z,28.10
2022-08-17T17:11:53.584Z,28.00
2022-08-17T17:14:29.586Z,28.00
2022-08-17T17:17:12.536Z,28.00
2022-08-17T17:19:57.378Z,27.90
2022-08-17T17:22:36.429Z,27.90
2022-08-17T17:25:25.249Z,27.90
2022-08-17T17:28:08.065Z,27.90
2022-08-17T17:30:55.100Z,27.80
2022-08-17T17:33:32.870Z,27.70
2022-08-17T17:36:18.583Z,27.70
2022-08-17T17:39:01.606Z,27.70
2022-08-17T17:41:39.917Z,27.70
2022-08-17T17:44:17.869Z,27.60
2022-08-17T17:46:54.173Z,27.60
2022-08-17T17:49:22.667Z,27.50
2022-08-17T17:52:18.948Z,27.40
2022-08-17T17:55:13.053Z,27.40
2022-08-17T17:57:46.793Z,27.30
2022-08-17T18:00:19.414Z,27.20
2022-08-17T18:03:24.722Z,27.10
2022-08-17T18:06:21.184Z,27.10
2022-08-17T18:09:23.794Z,27.00
2022-08-17T18:12:11.091Z,26.80
2022-08-17T18:15:04.300Z,26.70
2022-08-17T18:17:31.053Z,26.60
2022-08-17T18:19:57.808Z,26.50
2022-08-17T18:22:26.277Z,26.40
2022-08-17T18:24:58.140Z,26.20
2022-08-17T18:27:38.447Z,26.10
2022-08-17T18:30:13.924Z,25.90
2022-08-17T18:32:46.193Z,25.80
2022-08-17T18:35:14.119Z,25.60
2022-08-17T18:37:57.513Z,25.40
2022-08-17T18:40:37.406Z,25.30
2022-08-17T18:43:23.994Z,25.10
2022-08-17T18:45:55.167Z,24.90
2022-08-17T18:48:49.134Z,24.70
2022-08-17T18:51:40.719Z,24.50
2022-08-17T18:54:21.490Z,24.20
2022-08-17T18:59:49.174Z,23.90
2022-08-17T19:02:38.618Z,23.70
2022-08-17T19:05:15.393Z,23.60
2022-08-17T19:07:47.979Z,23.40
2022-08-17T19:10:25.845Z,23.30
2022-08-17T19:13:23.817Z,23.20
2022-08-17T19:16:18.987Z,23.10
2022-08-17T19:18:50.838Z,23.00
2022-08-17T19:21:31.953Z,22.80
2022-08-17T19:24:09.565Z,22.70
2022-08-17T19:26:54.572Z,22.60
2022-08-17T19:29:47.273Z,22.60
2022-08-17T19:32:21.545Z,22.40
2022-08-17T19:34:51.200Z,22.40
2022-08-17T19:37:32.877Z,22.30
2022-08-17T19:40:48.973Z,22.30
2022-08-17T19:43:32.052Z,22.30
2022-08-17T19:46:36.113Z,22.20
2022-08-17T19:50:15.221Z,22.20
2022-08-17T19:52:57.921Z,22.20
2022-08-17T19:55:50.889Z,22.10
2022-08-17T19:58:42.581Z,22.10
2022-08-17T20:01:20.646Z,22.00
2022-08-17T20:04:08.196Z,21.90
2022-08-17T20:06:39.381Z,21.80
2022-08-17T20:09:34.132Z,21.80
2022-08-17T20:14:51.720Z,21.60
2022-08-17T20:17:31.337Z,21.60
2022-08-17T20:20:41.701Z,21.50
2022-08-17T20:23:37.631Z,21.50
2022-08-17T20:26:26.249Z,21.50
2022-08-17T20:29:13.993Z,21.50
2022-08-17T20:31:49.409Z,21.40
2022-08-17T20:34:25.721Z,21.40
2022-08-17T20:37:32.841Z,21.40
2022-08-17T20:39:59.464Z,21.40
2022-08-17T20:42:27.055Z,21.40
2022-08-17T20:45:21.710Z,21.30
2022-08-17T20:48:21.586Z,21.30
2022-08-17T20:50:52.734Z,21.20
2022-08-17T20:53:47.477Z,21.10
2022-08-17T20:56:46.453Z,21.10
2022-08-17T20:59:30.292Z,20.90
2022-08-17T21:02:18.405Z,20.80
2022-08-17T21:04:52.736Z,20.80
2022-08-17T21:07:33.005Z,20.70
2022-08-17T21:10:22.177Z,20.60
2022-08-17T21:13:04.534Z,20.60
2022-08-17T21:15:43.050Z,20.70
2022-08-17T21:18:38.578Z,20.80
2022-08-17T21:21:37.438Z,20.80
2022-08-17T21:24:35.144Z,20.90
2022-08-17T21:27:23.517Z,21.00
2022-08-17T21:30:14.163Z,21.20
2022-08-17T21:33:03.991Z,21.30
2022-08-17T21:35:58.644Z,21.40
2022-08-17T21:39:08.560Z,21.50
2022-08-17T21:41:52.654Z,21.50
2022-08-17T21:44:35.132Z,21.50
2022-08-17T21:47:25.280Z,21.50
2022-08-17T21:49:54.465Z,21.50
2022-08-17T21:52:26.856Z,21.60
2022-08-17T21:54:58.759Z,21.50
2022-08-17T21:57:28.131Z,21.50
2022-08-17T22:00:02.312Z,21.50
2022-08-17T22:02:35.575Z,21.40
2022-08-17T22:05:13.588Z,21.40
2022-08-17T22:08:01.910Z,21.40
2022-08-17T22:10:39.279Z,21.40
2022-08-17T22:13:17.520Z,21.40
2022-08-17T22:16:15.363Z,21.50
2022-08-17T22:18:53.734Z,21.50
2022-08-17T22:21:22.548Z,21.50
2022-08-17T22:24:15.706Z,21.50
2022-08-17T22:27:10.865Z,21.50
2022-08-17T22:29:59.598Z,21.50
2022-08-17T22:32:40.053Z,21.50
2022-08-17T22:35:38.300Z,21.40
2022-08-17T22:38:20.372Z,21.40
2022-08-17T22:40:53.745Z,21.30
2022-08-17T22:43:26.542Z,21.30
2022-08-17T22:45:57.704Z,21.30
2022-08-17T22:48:27.981Z,21.20
2022-08-17T22:51:13.266Z,21.30
2022-08-17T22:54:13.790Z,21.30
2022-08-17T22:57:18.740Z,21.30
2022-08-17T22:59:51.397Z,21.20
2022-08-17T23:02:31.499Z,21.30
2022-08-17T23:05:12.660Z,21.30
2022-08-17T23:07:40.324Z,21.20
2022-08-17T23:10:09.953Z,21.20
2022-08-17T23:12:38.746Z,21.20
2022-08-17T23:15:15.474Z,21.20
2022-08-17T23:17:42.528Z,21.20
2022-08-17T23:20:15.116Z,21.20
2022-08-17T23:22:52.418Z,21.20
2022-08-17T23:25:28.191Z,21.20
2022-08-17T23:27:57.521Z,21.20
2022-08-17T23:30:28.438Z,21.20
2022-08-17T23:32:56.421Z,21.20
2022-08-17T23:35:38.904Z,21.20
2022-08-17T23:38:10.126Z,21.20
2022-08-17T23:40:39.198Z,21.20
2022-08-17T23:43:23.435Z,21.20
2022-08-17T23:45:57.245Z,21.20
2022-08-17T23:48:35.159Z,21.20
2022-08-17T23:51:38.151Z,21.20
2022-08-17T23:54:34.722Z,21.10
2022-08-17T23:57:04.489Z,21.10
2022-08-17T23:59:33.237Z,21.00
